sensor_id;sensor_type;location;lat;lon;timestamp;temperature;humidity
10278;DHT22;5184;51.376;7.148;2023-12-20T00:01:45;7.20;99.90
10278;DHT22;5184;51.376;7.148;2023-12-20T00:04:12;7.20;99.90
10278;DHT22;5184;51.376;7.148;2023-12-20T00:06:39;7.20;99.90
10278;DHT22;5184;51.376;7.148;2023-12-20T00:09:05;7.20;99.90
10278;DHT22;5184;51.376;7.148;2023-12-20T00:11:32;7.10;99.90
10278;DHT22;5184;51.376;7.148;2023-12-20T00:13:58;7.10;99.90
10278;DHT22;5184;51.376;7.148;2023-12-20T00:16:26;7.10;99.90
10278;DHT22;5184;51.376;7.148;2023-12-20T00:18:52;7.10;99.90
10278;DHT22;5184;51.376;7.148;2023-12-20T00:21:19;7.10;99.90
10278;DHT22;5184;51.376;7.148;2023-12-20T00:23:45;7.10;99.90
10278;DHT22;5184;51.376;7.148;2023-12-20T00:26:13;7.10;99.90
10278;DHT22;5184;51.376;7.148;2023-12-20T00:28:39;7.00;99.90
10278;DHT22;5184;51.376;7.148;2023-12-20T00:31:06;7.00;99.90
10278;DHT22;5184;51.376;7.148;2023-12-20T00:33:32;7.00;99.90
10278;DHT22;5184;51.376;7.148;2023-12-20T00:35:59;7.00;99.90
10278;DHT22;5184;51.376;7.148;2023-12-20T00:38:26;7.00;99.90
10278;DHT22;5184;51.376;7.148;2023-12-20T00:40:53;7.00;99.90
10278;DHT22;5184;51.376;7.148;2023-12-20T00:43:20;7.00;99.90
10278;DHT22;5184;51.376;7.148;2023-12-20T00:45:46;7.00;99.90
10278;DHT22;5184;51.376;7.148;2023-12-20T00:48:13;7.00;99.90
10278;DHT22;5184;51.376;7.148;2023-12-20T00:50:39;7.00;99.90
10278;DHT22;5184;51.376;7.148;2023-12-20T00:53:07;6.90;99.90
10278;DHT22;5184;51.376;7.148;2023-12-20T00:55:34;6.80;99.90
10278;DHT22;5184;51.376;7.148;2023-12-20T00:58:01;6.80;99.90
10278;DHT22;5184;51.376;7.148;2023-12-20T01:00:27;6.80;99.90
10278;DHT22;5184;51.376;7.148;2023-12-20T01:02:54;6.80;99.90
10278;DHT22;5184;51.376;7.148;2023-12-20T01:05:21;6.80;99.90
10278;DHT22;5184;51.376;7.148;2023-12-20T01:07:50;6.80;99.90
10278;DHT22;5184;51.376;7.148;2023-12-20T01:10:17;6.70;99.90
10278;DHT22;5184;51.376;7.148;2023-12-20T01:12:44;6.70;99.90
10278;DHT22;5184;51.376;7.148;2023-12-20T01:15:12;6.70;99.90
10278;DHT22;5184;51.376;7.148;2023-12-20T01:17:38;6.70;99.90
10278;DHT22;5184;51.376;7.148;2023-12-20T01:20:07;6.70;99.90
10278;DHT22;5184;51.376;7.148;2023-12-20T01:22:34;6.70;99.90
10278;DHT22;5184;51.376;7.148;2023-12-20T01:25:01;6.60;99.90
10278;DHT22;5184;51.376;7.148;2023-12-20T01:27:28;6.60;99.90
10278;DHT22;5184;51.376;7.148;2023-12-20T01:29:55;6.60;99.90
10278;DHT22;5184;51.376;7.148;2023-12-20T01:32:21;6.60;99.90
10278;DHT22;5184;51.376;7.148;2023-12-20T01:34:48;6.60;99.90
10278;DHT22;5184;51.376;7.148;2023-12-20T01:37:14;6.60;99.90
10278;DHT22;5184;51.376;7.148;2023-12-20T01:39:42;6.60;99.90
10278;DHT22;5184;51.376;7.148;2023-12-20T01:42:09;6.60;99.90
10278;DHT22;5184;51.376;7.148;2023-12-20T01:44:37;6.60;99.90
10278;DHT22;5184;51.376;7.148;2023-12-20T01:47:04;6.60;99.90
10278;DHT22;5184;51.376;7.148;2023-12-20T01:49:31;6.60;99.90
10278;DHT22;5184;51.376;7.148;2023-12-20T01:51:58;6.50;99.90
10278;DHT22;5184;51.376;7.148;2023-12-20T01:54:24;6.50;99.90
10278;DHT22;5184;51.376;7.148;2023-12-20T01:56:51;6.50;99.90
10278;DHT22;5184;51.376;7.148;2023-12-20T01:59:18;6.50;99.90
10278;DHT22;5184;51.376;7.148;2023-12-20T02:01:44;6.50;99.90
10278;DHT22;5184;51.376;7.148;2023-12-20T02:04:12;6.50;99.90
10278;DHT22;5184;51.376;7.148;2023-12-20T02:06:38;6.40;99.90
10278;DHT22;5184;51.376;7.148;2023-12-20T02:09:05;6.40;99.90
10278;DHT22;5184;51.376;7.148;2023-12-20T02:11:31;6.40;99.90
10278;DHT22;5184;51.376;7.148;2023-12-20T02:13:58;6.40;99.90
10278;DHT22;5184;51.376;7.148;2023-12-20T02:16:25;6.40;99.90
10278;DHT22;5184;51.376;7.148;2023-12-20T02:18:53;6.30;99.90
10278;DHT22;5184;51.376;7.148;2023-12-20T02:21:24;6.20;99.90
10278;DHT22;5184;51.376;7.148;2023-12-20T02:23:47;6.20;99.90
10278;DHT22;5184;51.376;7.148;2023-12-20T02:26:14;6.10;99.90
10278;DHT22;5184;51.376;7.148;2023-12-20T02:28:41;6.10;99.90
10278;DHT22;5184;51.376;7.148;2023-12-20T02:31:07;6.10;99.90
10278;DHT22;5184;51.376;7.148;2023-12-20T02:33:34;6.10;99.90
10278;DHT22;5184;51.376;7.148;2023-12-20T02:36:00;6.10;99.90
10278;DHT22;5184;51.376;7.148;2023-12-20T02:38:28;6.00;99.90
10278;DHT22;5184;51.376;7.148;2023-12-20T02:40:54;6.00;99.90
10278;DHT22;5184;51.376;7.148;2023-12-20T02:43:22;6.00;99.90
10278;DHT22;5184;51.376;7.148;2023-12-20T02:45:49;6.00;99.90
10278;DHT22;5184;51.376;7.148;2023-12-20T02:48:17;6.00;99.90
10278;DHT22;5184;51.376;7.148;2023-12-20T02:50:43;6.00;99.90
10278;DHT22;5184;51.376;7.148;2023-12-20T02:53:10;6.00;99.90
10278;DHT22;5184;51.376;7.148;2023-12-20T02:55:36;6.00;99.90
10278;DHT22;5184;51.376;7.148;2023-12-20T02:58:03;6.00;99.90
10278;DHT22;5184;51.376;7.148;2023-12-20T03:00:29;6.00;99.90
10278;DHT22;5184;51.376;7.148;2023-12-20T03:02:57;6.00;99.90
10278;DHT22;5184;51.376;7.148;2023-12-20T03:05:24;6.00;99.90
10278;DHT22;5184;51.376;7.148;2023-12-20T03:07:51;6.00;99.90
10278;DHT22;5184;51.376;7.148;2023-12-20T03:10:18;6.00;99.90
10278;DHT22;5184;51.376;7.148;2023-12-20T03:12:44;6.00;99.90
10278;DHT22;5184;51.376;7.148;2023-12-20T03:15:11;6.00;99.90
10278;DHT22;5184;51.376;7.148;2023-12-20T03:17:37;5.90;99.90
10278;DHT22;5184;51.376;7.148;2023-12-20T03:20:05;5.90;99.90
10278;DHT22;5184;51.376;7.148;2023-12-20T03:22:32;5.40;99.90
10278;DHT22;5184;51.376;7.148;2023-12-20T03:24:59;5.90;99.90
10278;DHT22;5184;51.376;7.148;2023-12-20T03:27:27;5.90;99.90
10278;DHT22;5184;51.376;7.148;2023-12-20T03:29:54;5.90;99.90
10278;DHT22;5184;51.376;7.148;2023-12-20T03:32:21;5.90;99.90
10278;DHT22;5184;51.376;7.148;2023-12-20T03:34:48;5.80;99.90
10278;DHT22;5184;51.376;7.148;2023-12-20T03:37:15;5.80;99.90
10278;DHT22;5184;51.376;7.148;2023-12-20T03:39:41;5.80;99.90
10278;DHT22;5184;51.376;7.148;2023-12-20T03:42:08;5.80;99.90
10278;DHT22;5184;51.376;7.148;2023-12-20T03:44:37;5.70;99.90
10278;DHT22;5184;51.376;7.148;2023-12-20T03:47:02;5.70;99.90
10278;DHT22;5184;51.376;7.148;2023-12-20T03:49:28;5.70;99.90
10278;DHT22;5184;51.376;7.148;2023-12-20T03:51:56;5.60;99.90
10278;DHT22;5184;51.376;7.148;2023-12-20T03:54:23;5.60;99.90
10278;DHT22;5184;51.376;7.148;2023-12-20T03:56:50;5.60;99.90
10278;DHT22;5184;51.376;7.148;2023-12-20T03:59:18;5.60;99.90
10278;DHT22;5184;51.376;7.148;2023-12-20T04:01:45;5.60;99.90
10278;DHT22;5184;51.376;7.148;2023-12-20T04:04:12;5.60;99.90
10278;DHT22;5184;51.376;7.148;2023-12-20T04:06:38;5.60;99.90
10278;DHT22;5184;51.376;7.148;2023-12-20T04:09:05;5.60;99.90
10278;DHT22;5184;51.376;7.148;2023-12-20T04:11:32;5.60;99.90
10278;DHT22;5184;51.376;7.148;2023-12-20T04:13:58;5.60;99.90
10278;DHT22;5184;51.376;7.148;2023-12-20T04:16:26;5.50;99.90
10278;DHT22;5184;51.376;7.148;2023-12-20T04:18:53;5.50;99.90
10278;DHT22;5184;51.376;7.148;2023-12-20T04:21:20;5.50;99.90
10278;DHT22;5184;51.376;7.148;2023-12-20T04:23:48;5.50;99.90
10278;DHT22;5184;51.376;7.148;2023-12-20T04:26:14;5.40;99.90
10278;DHT22;5184;51.376;7.148;2023-12-20T04:28:41;5.40;99.90
10278;DHT22;5184;51.376;7.148;2023-12-20T04:31:07;5.50;99.90
10278;DHT22;5184;51.376;7.148;2023-12-20T04:33:34;5.50;99.90
10278;DHT22;5184;51.376;7.148;2023-12-20T04:36:01;5.50;99.90
10278;DHT22;5184;51.376;7.148;2023-12-20T04:38:28;5.50;99.90
10278;DHT22;5184;51.376;7.148;2023-12-20T04:40:55;5.50;99.90
10278;DHT22;5184;51.376;7.148;2023-12-20T04:43:23;5.50;99.90
10278;DHT22;5184;51.376;7.148;2023-12-20T04:45:49;5.50;99.90
10278;DHT22;5184;51.376;7.148;2023-12-20T04:48:16;5.50;99.90
10278;DHT22;5184;51.376;7.148;2023-12-20T04:50:42;5.50;99.90
10278;DHT22;5184;51.376;7.148;2023-12-20T04:53:09;5.50;99.90
10278;DHT22;5184;51.376;7.148;2023-12-20T04:55:36;5.50;99.90
10278;DHT22;5184;51.376;7.148;2023-12-20T04:58:03;5.50;99.90
10278;DHT22;5184;51.376;7.148;2023-12-20T05:00:30;5.50;99.90
10278;DHT22;5184;51.376;7.148;2023-12-20T05:02:58;5.50;99.90
10278;DHT22;5184;51.376;7.148;2023-12-20T05:05:25;5.60;99.90
10278;DHT22;5184;51.376;7.148;2023-12-20T05:07:53;5.60;99.90
10278;DHT22;5184;51.376;7.148;2023-12-20T05:10:19;5.60;99.90
10278;DHT22;5184;51.376;7.148;2023-12-20T05:12:46;5.60;99.90
10278;DHT22;5184;51.376;7.148;2023-12-20T05:15:13;5.60;99.90
10278;DHT22;5184;51.376;7.148;2023-12-20T05:17:39;5.60;99.90
10278;DHT22;5184;51.376;7.148;2023-12-20T05:20:07;5.60;99.90
10278;DHT22;5184;51.376;7.148;2023-12-20T05:22:34;5.60;99.90
10278;DHT22;5184;51.376;7.148;2023-12-20T05:25:01;5.60;99.90
10278;DHT22;5184;51.376;7.148;2023-12-20T05:27:28;5.50;99.90
10278;DHT22;5184;51.376;7.148;2023-12-20T05:29:55;5.50;99.90
10278;DHT22;5184;51.376;7.148;2023-12-20T05:32:21;5.50;99.90
10278;DHT22;5184;51.376;7.148;2023-12-20T05:34:48;5.50;99.90
10278;DHT22;5184;51.376;7.148;2023-12-20T05:37:14;5.50;99.90
10278;DHT22;5184;51.376;7.148;2023-12-20T05:39:42;5.50;99.90
10278;DHT22;5184;51.376;7.148;2023-12-20T05:42:09;5.50;99.90
10278;DHT22;5184;51.376;7.148;2023-12-20T05:44:36;5.50;99.90
10278;DHT22;5184;51.376;7.148;2023-12-20T05:47:04;5.50;99.90
10278;DHT22;5184;51.376;7.148;2023-12-20T05:49:30;5.50;99.90
10278;DHT22;5184;51.376;7.148;2023-12-20T05:51:57;5.50;99.90
10278;DHT22;5184;51.376;7.148;2023-12-20T05:54:24;5.50;99.90
10278;DHT22;5184;51.376;7.148;2023-12-20T05:56:50;5.50;99.90
10278;DHT22;5184;51.376;7.148;2023-12-20T05:59:17;5.50;99.90
10278;DHT22;5184;51.376;7.148;2023-12-20T06:01:44;5.50;99.90
10278;DHT22;5184;51.376;7.148;2023-12-20T06:04:11;5.50;99.90
10278;DHT22;5184;51.376;7.148;2023-12-20T06:06:42;5.50;99.90
10278;DHT22;5184;51.376;7.148;2023-12-20T06:09:08;5.50;99.90
10278;DHT22;5184;51.376;7.148;2023-12-20T06:11:35;5.50;99.90
10278;DHT22;5184;51.376;7.148;2023-12-20T06:14:03;5.50;99.90
10278;DHT22;5184;51.376;7.148;2023-12-20T06:16:29;5.50;99.90
10278;DHT22;5184;51.376;7.148;2023-12-20T06:18:56;5.60;99.90
10278;DHT22;5184;51.376;7.148;2023-12-20T06:21:23;5.60;99.90
10278;DHT22;5184;51.376;7.148;2023-12-20T06:23:49;5.60;99.90
10278;DHT22;5184;51.376;7.148;2023-12-20T06:26:16;5.60;99.90
10278;DHT22;5184;51.376;7.148;2023-12-20T06:28:43;5.60;99.90
10278;DHT22;5184;51.376;7.148;2023-12-20T06:31:10;5.60;99.90
10278;DHT22;5184;51.376;7.148;2023-12-20T06:33:38;5.60;99.90
10278;DHT22;5184;51.376;7.148;2023-12-20T06:36:05;5.60;99.90
10278;DHT22;5184;51.376;7.148;2023-12-20T06:38:32;5.60;99.90
10278;DHT22;5184;51.376;7.148;2023-12-20T06:40:58;5.60;99.90
10278;DHT22;5184;51.376;7.148;2023-12-20T06:43:25;5.60;99.90
10278;DHT22;5184;51.376;7.148;2023-12-20T06:45:52;5.70;99.90
10278;DHT22;5184;51.376;7.148;2023-12-20T06:48:18;5.70;99.90
10278;DHT22;5184;51.376;7.148;2023-12-20T06:50:46;5.70;99.90
10278;DHT22;5184;51.376;7.148;2023-12-20T06:53:13;5.70;99.90
10278;DHT22;5184;51.376;7.148;2023-12-20T06:55:40;5.70;99.90
10278;DHT22;5184;51.376;7.148;2023-12-20T06:58:08;5.70;99.90
10278;DHT22;5184;51.376;7.148;2023-12-20T07:00:34;5.70;99.90
10278;DHT22;5184;51.376;7.148;2023-12-20T07:03:01;5.70;99.90
10278;DHT22;5184;51.376;7.148;2023-12-20T07:05:27;5.70;99.90
10278;DHT22;5184;51.376;7.148;2023-12-20T07:07:54;5.70;99.90
10278;DHT22;5184;51.376;7.148;2023-12-20T07:10:21;5.70;99.90
10278;DHT22;5184;51.376;7.148;2023-12-20T07:12:48;5.70;99.90
10278;DHT22;5184;51.376;7.148;2023-12-20T07:15:15;5.70;99.90
10278;DHT22;5184;51.376;7.148;2023-12-20T07:17:43;5.70;99.90
10278;DHT22;5184;51.376;7.148;2023-12-20T07:20:10;5.80;99.90
10278;DHT22;5184;51.376;7.148;2023-12-20T07:22:38;5.80;99.90
10278;DHT22;5184;51.376;7.148;2023-12-20T07:25:04;5.80;99.90
10278;DHT22;5184;51.376;7.148;2023-12-20T07:27:30;5.80;99.90
10278;DHT22;5184;51.376;7.148;2023-12-20T07:29:57;5.80;99.90
10278;DHT22;5184;51.376;7.148;2023-12-20T07:32:24;5.80;99.90
10278;DHT22;5184;51.376;7.148;2023-12-20T07:34:50;5.80;99.90
10278;DHT22;5184;51.376;7.148;2023-12-20T07:37:18;5.80;99.90
10278;DHT22;5184;51.376;7.148;2023-12-20T07:39:45;5.80;99.90
10278;DHT22;5184;51.376;7.148;2023-12-20T07:42:12;5.80;99.90
10278;DHT22;5184;51.376;7.148;2023-12-20T07:44:39;5.80;99.90
10278;DHT22;5184;51.376;7.148;2023-12-20T07:47:05;5.80;99.90
10278;DHT22;5184;51.376;7.148;2023-12-20T07:49:32;5.80;99.90
10278;DHT22;5184;51.376;7.148;2023-12-20T07:52:00;5.90;99.90
10278;DHT22;5184;51.376;7.148;2023-12-20T07:54:27;5.80;99.90
10278;DHT22;5184;51.376;7.148;2023-12-20T07:56:54;5.90;99.90
10278;DHT22;5184;51.376;7.148;2023-12-20T07:59:20;5.90;99.90
10278;DHT22;5184;51.376;7.148;2023-12-20T08:01:47;5.90;99.90
10278;DHT22;5184;51.376;7.148;2023-12-20T08:04:14;5.90;99.90
10278;DHT22;5184;51.376;7.148;2023-12-20T08:06:42;5.90;99.90
10278;DHT22;5184;51.376;7.148;2023-12-20T08:09:09;5.90;99.90
10278;DHT22;5184;51.376;7.148;2023-12-20T08:11:35;5.90;99.90
10278;DHT22;5184;51.376;7.148;2023-12-20T08:14:02;5.90;99.90
10278;DHT22;5184;51.376;7.148;2023-12-20T08:16:29;5.90;99.90
10278;DHT22;5184;51.376;7.148;2023-12-20T08:18:55;6.00;99.90
10278;DHT22;5184;51.376;7.148;2023-12-20T08:21:23;6.00;99.90
10278;DHT22;5184;51.376;7.148;2023-12-20T08:23:49;5.90;99.90
10278;DHT22;5184;51.376;7.148;2023-12-20T08:26:18;6.00;99.90
10278;DHT22;5184;51.376;7.148;2023-12-20T08:28:44;6.00;99.90
10278;DHT22;5184;51.376;7.148;2023-12-20T08:31:14;6.00;99.90
10278;DHT22;5184;51.376;7.148;2023-12-20T08:33:40;6.00;99.90
10278;DHT22;5184;51.376;7.148;2023-12-20T08:36:06;6.00;99.90
10278;DHT22;5184;51.376;7.148;2023-12-20T08:38:34;6.00;99.90
10278;DHT22;5184;51.376;7.148;2023-12-20T08:41:01;6.00;99.90
10278;DHT22;5184;51.376;7.148;2023-12-20T08:43:28;6.00;99.90
10278;DHT22;5184;51.376;7.148;2023-12-20T08:45:55;6.00;99.90
10278;DHT22;5184;51.376;7.148;2023-12-20T08:48:22;6.00;99.90
10278;DHT22;5184;51.376;7.148;2023-12-20T08:50:48;6.10;99.90
10278;DHT22;5184;51.376;7.148;2023-12-20T08:53:15;6.10;99.90
10278;DHT22;5184;51.376;7.148;2023-12-20T08:55:41;6.00;99.90
10278;DHT22;5184;51.376;7.148;2023-12-20T08:58:09;6.10;99.90
10278;DHT22;5184;51.376;7.148;2023-12-20T09:00:35;6.00;99.90
10278;DHT22;5184;51.376;7.148;2023-12-20T09:03:02;6.10;99.90
10278;DHT22;5184;51.376;7.148;2023-12-20T09:05:29;6.10;99.90
10278;DHT22;5184;51.376;7.148;2023-12-20T09:07:56;6.10;99.90
10278;DHT22;5184;51.376;7.148;2023-12-20T09:10:23;6.10;99.90
10278;DHT22;5184;51.376;7.148;2023-12-20T09:12:50;6.10;99.90
10278;DHT22;5184;51.376;7.148;2023-12-20T09:15:16;6.10;99.90
10278;DHT22;5184;51.376;7.148;2023-12-20T09:17:42;6.10;99.90
10278;DHT22;5184;51.376;7.148;2023-12-20T09:20:09;6.10;99.90
10278;DHT22;5184;51.376;7.148;2023-12-20T09:22:36;6.10;99.90
10278;DHT22;5184;51.376;7.148;2023-12-20T09:25:02;6.10;99.90
10278;DHT22;5184;51.376;7.148;2023-12-20T09:27:29;6.10;99.90
10278;DHT22;5184;51.376;7.148;2023-12-20T09:29:56;6.10;99.90
10278;DHT22;5184;51.376;7.148;2023-12-20T09:32:23;6.10;99.90
10278;DHT22;5184;51.376;7.148;2023-12-20T09:34:50;6.20;99.90
10278;DHT22;5184;51.376;7.148;2023-12-20T09:37:18;6.20;99.90
10278;DHT22;5184;51.376;7.148;2023-12-20T09:39:44;6.20;99.90
10278;DHT22;5184;51.376;7.148;2023-12-20T09:42:11;6.20;99.90
10278;DHT22;5184;51.376;7.148;2023-12-20T09:44:38;6.20;99.90
10278;DHT22;5184;51.376;7.148;2023-12-20T09:47:05;6.20;99.90
10278;DHT22;5184;51.376;7.148;2023-12-20T09:49:31;6.20;99.90
10278;DHT22;5184;51.376;7.148;2023-12-20T09:51:58;6.20;99.90
10278;DHT22;5184;51.376;7.148;2023-12-20T09:54:24;6.20;99.90
10278;DHT22;5184;51.376;7.148;2023-12-20T09:56:51;6.30;99.90
10278;DHT22;5184;51.376;7.148;2023-12-20T09:59:17;6.20;99.90
10278;DHT22;5184;51.376;7.148;2023-12-20T10:01:45;6.30;99.90
10278;DHT22;5184;51.376;7.148;2023-12-20T10:04:12;6.30;99.90
10278;DHT22;5184;51.376;7.148;2023-12-20T10:06:40;6.20;99.90
10278;DHT22;5184;51.376;7.148;2023-12-20T10:09:07;6.30;99.90
10278;DHT22;5184;51.376;7.148;2023-12-20T10:11:36;6.20;99.90
10278;DHT22;5184;51.376;7.148;2023-12-20T10:14:02;6.20;99.90
10278;DHT22;5184;51.376;7.148;2023-12-20T10:16:30;6.20;99.90
10278;DHT22;5184;51.376;7.148;2023-12-20T10:18:57;6.20;99.90
10278;DHT22;5184;51.376;7.148;2023-12-20T10:21:24;6.20;99.90
10278;DHT22;5184;51.376;7.148;2023-12-20T10:23:51;6.20;99.90
10278;DHT22;5184;51.376;7.148;2023-12-20T10:26:20;6.20;99.90
10278;DHT22;5184;51.376;7.148;2023-12-20T10:28:50;6.30;99.90
10278;DHT22;5184;51.376;7.148;2023-12-20T10:31:27;6.30;99.90
10278;DHT22;5184;51.376;7.148;2023-12-20T10:33:53;6.20;99.90
10278;DHT22;5184;51.376;7.148;2023-12-20T10:36:20;6.20;99.90
10278;DHT22;5184;51.376;7.148;2023-12-20T10:38:48;6.10;99.90
10278;DHT22;5184;51.376;7.148;2023-12-20T10:41:15;6.10;99.90
10278;DHT22;5184;51.376;7.148;2023-12-20T10:43:41;6.10;99.90
10278;DHT22;5184;51.376;7.148;2023-12-20T10:46:08;6.20;99.90
10278;DHT22;5184;51.376;7.148;2023-12-20T10:48:34;6.20;99.90
10278;DHT22;5184;51.376;7.148;2023-12-20T10:51:01;6.20;99.90
10278;DHT22;5184;51.376;7.148;2023-12-20T10:53:28;6.20;99.90
10278;DHT22;5184;51.376;7.148;2023-12-20T10:55:55;6.20;99.90
10278;DHT22;5184;51.376;7.148;2023-12-20T10:58:21;6.20;99.90
10278;DHT22;5184;51.376;7.148;2023-12-20T11:00:48;6.20;99.90
10278;DHT22;5184;51.376;7.148;2023-12-20T11:03:15;6.20;99.90
10278;DHT22;5184;51.376;7.148;2023-12-20T11:05:50;6.20;99.90
10278;DHT22;5184;51.376;7.148;2023-12-20T11:08:22;6.20;99.90
10278;DHT22;5184;51.376;7.148;2023-12-20T11:10:59;6.30;99.90
10278;DHT22;5184;51.376;7.148;2023-12-20T11:13:30;6.20;99.90
10278;DHT22;5184;51.376;7.148;2023-12-20T11:15:55;6.30;99.90
10278;DHT22;5184;51.376;7.148;2023-12-20T11:18:28;6.20;99.90
10278;DHT22;5184;51.376;7.148;2023-12-20T11:20:49;6.30;99.90
10278;DHT22;5184;51.376;7.148;2023-12-20T11:23:17;6.30;99.90
10278;DHT22;5184;51.376;7.148;2023-12-20T11:25:53;6.30;99.90
10278;DHT22;5184;51.376;7.148;2023-12-20T11:28:20;6.30;99.90
10278;DHT22;5184;51.376;7.148;2023-12-20T11:30:47;6.30;99.90
10278;DHT22;5184;51.376;7.148;2023-12-20T11:33:14;6.30;99.90
10278;DHT22;5184;51.376;7.148;2023-12-20T11:35:40;6.30;99.90
10278;DHT22;5184;51.376;7.148;2023-12-20T11:38:08;6.20;99.90
10278;DHT22;5184;51.376;7.148;2023-12-20T11:40:35;6.30;99.90
10278;DHT22;5184;51.376;7.148;2023-12-20T11:43:02;6.30;99.90
10278;DHT22;5184;51.376;7.148;2023-12-20T11:45:29;6.30;99.90
10278;DHT22;5184;51.376;7.148;2023-12-20T11:47:56;6.30;99.90
10278;DHT22;5184;51.376;7.148;2023-12-20T11:50:24;6.30;99.90
10278;DHT22;5184;51.376;7.148;2023-12-20T11:52:51;6.30;99.90
10278;DHT22;5184;51.376;7.148;2023-12-20T11:55:17;6.30;99.90
10278;DHT22;5184;51.376;7.148;2023-12-20T11:57:45;6.40;99.90
10278;DHT22;5184;51.376;7.148;2023-12-20T12:00:13;6.50;99.90
10278;DHT22;5184;51.376;7.148;2023-12-20T12:02:40;6.50;99.90
10278;DHT22;5184;51.376;7.148;2023-12-20T12:05:07;6.50;99.90
10278;DHT22;5184;51.376;7.148;2023-12-20T12:07:34;6.50;99.90
10278;DHT22;5184;51.376;7.148;2023-12-20T12:10:01;6.50;99.90
10278;DHT22;5184;51.376;7.148;2023-12-20T12:12:27;6.40;99.90
10278;DHT22;5184;51.376;7.148;2023-12-20T12:14:54;6.40;99.90
10278;DHT22;5184;51.376;7.148;2023-12-20T12:17:20;6.40;99.90
10278;DHT22;5184;51.376;7.148;2023-12-20T12:19:48;6.40;99.90
10278;DHT22;5184;51.376;7.148;2023-12-20T12:22:15;6.40;99.90
10278;DHT22;5184;51.376;7.148;2023-12-20T12:24:43;6.40;99.90
10278;DHT22;5184;51.376;7.148;2023-12-20T12:27:09;6.40;99.90
10278;DHT22;5184;51.376;7.148;2023-12-20T12:29:36;6.40;99.90
10278;DHT22;5184;51.376;7.148;2023-12-20T12:32:06;6.40;99.90
10278;DHT22;5184;51.376;7.148;2023-12-20T12:34:32;6.40;99.90
10278;DHT22;5184;51.376;7.148;2023-12-20T12:36:58;6.40;99.90
10278;DHT22;5184;51.376;7.148;2023-12-20T12:39:25;6.50;99.90
10278;DHT22;5184;51.376;7.148;2023-12-20T12:41:52;6.50;99.90
10278;DHT22;5184;51.376;7.148;2023-12-20T12:44:18;6.50;99.90
10278;DHT22;5184;51.376;7.148;2023-12-20T12:46:46;6.50;99.90
10278;DHT22;5184;51.376;7.148;2023-12-20T12:49:13;6.60;99.90
10278;DHT22;5184;51.376;7.148;2023-12-20T12:51:40;6.60;99.90
10278;DHT22;5184;51.376;7.148;2023-12-20T12:54:07;6.60;99.90
10278;DHT22;5184;51.376;7.148;2023-12-20T12:56:35;6.60;99.90
10278;DHT22;5184;51.376;7.148;2023-12-20T12:59:01;6.60;99.90
10278;DHT22;5184;51.376;7.148;2023-12-20T13:01:28;6.60;99.90
10278;DHT22;5184;51.376;7.148;2023-12-20T13:03:54;6.60;99.90
10278;DHT22;5184;51.376;7.148;2023-12-20T13:06:21;6.60;99.90
10278;DHT22;5184;51.376;7.148;2023-12-20T13:08:48;6.60;99.90
10278;DHT22;5184;51.376;7.148;2023-12-20T13:11:15;6.50;99.90
10278;DHT22;5184;51.376;7.148;2023-12-20T13:13:42;6.50;99.90
10278;DHT22;5184;51.376;7.148;2023-12-20T13:16:10;6.50;99.90
10278;DHT22;5184;51.376;7.148;2023-12-20T13:18:36;6.50;99.90
10278;DHT22;5184;51.376;7.148;2023-12-20T13:21:03;6.50;99.90
10278;DHT22;5184;51.376;7.148;2023-12-20T13:23:30;6.50;99.90
10278;DHT22;5184;51.376;7.148;2023-12-20T13:25:58;6.50;99.90
10278;DHT22;5184;51.376;7.148;2023-12-20T13:28:25;6.50;99.90
10278;DHT22;5184;51.376;7.148;2023-12-20T13:30:52;6.50;99.90
10278;DHT22;5184;51.376;7.148;2023-12-20T13:33:20;6.50;99.90
10278;DHT22;5184;51.376;7.148;2023-12-20T13:35:46;6.50;99.90
10278;DHT22;5184;51.376;7.148;2023-12-20T13:38:13;6.40;99.90
10278;DHT22;5184;51.376;7.148;2023-12-20T13:40:40;6.40;99.90
10278;DHT22;5184;51.376;7.148;2023-12-20T13:43:06;6.40;99.90
10278;DHT22;5184;51.376;7.148;2023-12-20T13:45:33;6.40;99.90
10278;DHT22;5184;51.376;7.148;2023-12-20T13:48:00;6.30;99.90
10278;DHT22;5184;51.376;7.148;2023-12-20T13:50:27;6.20;99.90
10278;DHT22;5184;51.376;7.148;2023-12-20T13:52:54;6.20;99.90
10278;DHT22;5184;51.376;7.148;2023-12-20T13:55:22;6.20;99.90
10278;DHT22;5184;51.376;7.148;2023-12-20T13:57:49;6.20;99.90
10278;DHT22;5184;51.376;7.148;2023-12-20T14:00:16;6.20;99.90
10278;DHT22;5184;51.376;7.148;2023-12-20T14:02:43;6.20;99.90
10278;DHT22;5184;51.376;7.148;2023-12-20T14:05:10;6.20;99.90
10278;DHT22;5184;51.376;7.148;2023-12-20T14:07:38;6.20;99.90
10278;DHT22;5184;51.376;7.148;2023-12-20T14:10:06;6.20;99.90
10278;DHT22;5184;51.376;7.148;2023-12-20T14:12:32;6.20;99.90
10278;DHT22;5184;51.376;7.148;2023-12-20T14:14:59;6.20;99.90
10278;DHT22;5184;51.376;7.148;2023-12-20T14:17:25;6.20;99.90
10278;DHT22;5184;51.376;7.148;2023-12-20T14:19:52;6.20;99.90
10278;DHT22;5184;51.376;7.148;2023-12-20T14:22:19;6.20;99.90
10278;DHT22;5184;51.376;7.148;2023-12-20T14:24:46;6.20;99.90
10278;DHT22;5184;51.376;7.148;2023-12-20T14:27:13;6.20;99.90
10278;DHT22;5184;51.376;7.148;2023-12-20T14:29:41;6.20;99.90
10278;DHT22;5184;51.376;7.148;2023-12-20T14:32:08;6.20;99.90
10278;DHT22;5184;51.376;7.148;2023-12-20T14:34:35;6.20;99.90
10278;DHT22;5184;51.376;7.148;2023-12-20T14:39:37;6.20;99.90
10278;DHT22;5184;51.376;7.148;2023-12-20T14:42:05;6.20;99.90
10278;DHT22;5184;51.376;7.148;2023-12-20T14:44:32;6.20;99.90
10278;DHT22;5184;51.376;7.148;2023-12-20T14:46:59;6.30;99.90
10278;DHT22;5184;51.376;7.148;2023-12-20T14:49:27;6.30;99.90
10278;DHT22;5184;51.376;7.148;2023-12-20T14:51:54;6.30;99.90
10278;DHT22;5184;51.376;7.148;2023-12-20T14:54:21;6.30;99.90
10278;DHT22;5184;51.376;7.148;2023-12-20T14:56:49;6.40;99.90
10278;DHT22;5184;51.376;7.148;2023-12-20T14:59:15;6.30;99.90
10278;DHT22;5184;51.376;7.148;2023-12-20T15:01:43;6.40;99.90
10278;DHT22;5184;51.376;7.148;2023-12-20T15:04:08;6.40;99.90
10278;DHT22;5184;51.376;7.148;2023-12-20T15:06:35;6.40;99.90
10278;DHT22;5184;51.376;7.148;2023-12-20T15:09:02;6.40;99.90
10278;DHT22;5184;51.376;7.148;2023-12-20T15:11:28;6.40;99.90
10278;DHT22;5184;51.376;7.148;2023-12-20T15:13:55;6.40;99.90
10278;DHT22;5184;51.376;7.148;2023-12-20T15:16:22;6.50;99.90
10278;DHT22;5184;51.376;7.148;2023-12-20T15:18:49;6.50;99.90
10278;DHT22;5184;51.376;7.148;2023-12-20T15:21:16;6.50;99.90
10278;DHT22;5184;51.376;7.148;2023-12-20T15:23:44;6.60;99.90
10278;DHT22;5184;51.376;7.148;2023-12-20T15:26:11;6.60;99.90
10278;DHT22;5184;51.376;7.148;2023-12-20T15:28:37;6.60;99.90
10278;DHT22;5184;51.376;7.148;2023-12-20T15:31:04;6.60;99.90
10278;DHT22;5184;51.376;7.148;2023-12-20T15:33:31;6.60;99.90
10278;DHT22;5184;51.376;7.148;2023-12-20T15:35:57;6.60;99.90
10278;DHT22;5184;51.376;7.148;2023-12-20T15:38:24;6.60;99.90
10278;DHT22;5184;51.376;7.148;2023-12-20T15:40:51;6.70;99.90
10278;DHT22;5184;51.376;7.148;2023-12-20T15:43:19;6.70;99.90
10278;DHT22;5184;51.376;7.148;2023-12-20T15:45:46;6.80;99.90
10278;DHT22;5184;51.376;7.148;2023-12-20T15:48:13;6.70;99.90
10278;DHT22;5184;51.376;7.148;2023-12-20T15:50:40;6.70;99.90
10278;DHT22;5184;51.376;7.148;2023-12-20T15:53:06;6.70;99.90
10278;DHT22;5184;51.376;7.148;2023-12-20T15:55:33;6.70;99.90
10278;DHT22;5184;51.376;7.148;2023-12-20T15:58:00;6.70;99.90
10278;DHT22;5184;51.376;7.148;2023-12-20T16:00:26;6.70;99.90
10278;DHT22;5184;51.376;7.148;2023-12-20T16:02:54;6.80;99.90